Observations de surface / France / LFBP

Québec | Canada | États-Unis | France | UK | Europe | Ailleurs

Affichage: Infos & localisation pour LFBP | Aide pour décoder les METARs

LFBP PONT-LONG-UZEIN/PAU -- FR
Raw surface observations for station LFBP
LFBP 211700Z AUTO VRB02KT CAVOK 07/00 Q1020 NOSIG=
LFBP 211630Z AUTO 06004KT CAVOK 08/01 Q1020 NOSIG=
LFBP 211600Z AUTO 36004KT 320V070 CAVOK 09/01 Q1020 NOSIG=
LFBP 211530Z AUTO VRB03KT CAVOK 10/01 Q1020 NOSIG=
LFBP 211500Z AUTO 32003KT 300V010 CAVOK 10/M00 Q1020 NOSIG=
LFBP 211430Z AUTO VRB02KT CAVOK 10/M01 Q1020 NOSIG=
LFBP 211400Z AUTO VRB02KT CAVOK 10/M00 Q1020 NOSIG=
LFBP 211330Z AUTO VRB02KT CAVOK 10/00 Q1020 NOSIG=
LFBP 211300Z AUTO VRB02KT CAVOK 10/M01 Q1020 NOSIG=
LFBP 211230Z AUTO 00000KT CAVOK 09/M00 Q1021 NOSIG=
LFBP 211200Z AUTO 00000KT CAVOK 08/M00 Q1021 NOSIG=
LFBP 211130Z AUTO VRB02KT CAVOK 07/M00 Q1021 NOSIG=
LFBP 211100Z AUTO VRB02KT CAVOK 06/M01 Q1022 NOSIG=
LFBP 211030Z AUTO VRB01KT CAVOK 05/M01 Q1022 NOSIG=
LFBP 211000Z AUTO VRB02KT CAVOK 04/M01 Q1021 NOSIG=
LFBP 210930Z AUTO VRB02KT CAVOK 03/M02 Q1021 NOSIG=
LFBP 210900Z AUTO 00000KT CAVOK 01/M02 Q1021 NOSIG=
LFBP 210830Z AUTO 14003KT 9999 1700 NSC M01/M04 Q1021 NOSIG=
LFBP 210800Z AUTO 12005KT CAVOK M03/M04 Q1021 NOSIG=
LFBP 210730Z AUTO 14004KT CAVOK M03/M05 Q1021 NOSIG=
LFBP 210700Z AUTO 12004KT CAVOK M04/M05 Q1021 TEMPO 4000 BR=
LFBP 210630Z AUTO 13004KT CAVOK M04/M06 Q1021 TEMPO 4000 BR=
LFBP 210600Z AUTO 13003KT CAVOK M04/M05 Q1021 TEMPO 4000 BR=
LFBP 210530Z AUTO 17004KT CAVOK M03/M05 Q1021 TEMPO 4000 BR=
LFBP 210500Z AUTO 15003KT 8000 NSC M04/M06 Q1021 TEMPO 4000 BR=
LFBP 210430Z AUTO 10001KT 8000 NSC M04/M05 Q1021 TEMPO 4000 BR=
LFBP 210400Z AUTO 00000KT 7000 NSC M04/M05 Q1021 TEMPO 4000 BR=
LFBP 210330Z AUTO VRB02KT 6000 NSC M04/M05 Q1022 TEMPO 4000 BR=
LFBP 210300Z AUTO 09003KT 5000 BR NSC M04/M05 Q1022 NOSIG=
LFBP 210230Z AUTO VRB01KT 5000 BR NSC M04/M05 Q1022 NOSIG=
LFBP 210200Z AUTO 00000KT 6000 NSC M03/M05 Q1022 TEMPO 4000 BR=
LFBP 210130Z AUTO 10001KT 6000 NSC M03/M04 Q1022 TEMPO 4000 BR=
LFBP 210100Z AUTO 00000KT 6000 NSC M03/M05 Q1022 TEMPO 4000 BR=
LFBP 210030Z AUTO 12002KT 6000 NSC M02/M04 Q1022 TEMPO 4000 BR=
LFBP 210000Z AUTO 00000KT 6000 NSC M02/M04 Q1022 TEMPO 4000 BR=
LFBP 202330Z AUTO 11002KT 6000 NSC M02/M03 Q1022 TEMPO 4000 BR=
LFBP 202300Z AUTO 12003KT 6000 NSC M02/M03 Q1022 TEMPO 4000 BR=
LFBP 202230Z AUTO 13005KT 5000 BR NSC M01/M02 Q1022 NOSIG=
LFBP 202200Z AUTO 10002KT 5000 BR NSC M02/M03 Q1023 NOSIG=
LFBP 202130Z AUTO 11002KT 5000 BR NSC M02/M03 Q1023 NOSIG=
LFBP 202100Z AUTO VRB02KT 6000 NSC M02/M03 Q1023 NOSIG=
LFBP 202030Z AUTO 12003KT 5000 BR NSC M01/M03 Q1023 NOSIG=
LFBP 202000Z AUTO 08003KT 5000 BR NSC M01/M03 Q1023 NOSIG=
LFBP 201930Z AUTO 08002KT 6000 NSC M01/M03 Q1023 NOSIG=
LFBP 201900Z AUTO 07002KT 8000 NSC M00/M03 Q1023 NOSIG=
LFBP 201830Z AUTO 00000KT 9000 NSC 00/M02 Q1023 NOSIG=
LFBP 201800Z AUTO 00000KT CAVOK 01/M02 Q1023 NOSIG=
LFBP 201730Z AUTO 09002KT CAVOK 03/M01 Q1023 NOSIG=
LFBP 201700Z AUTO VRB03KT CAVOK 04/M01 Q1022 NOSIG=